sensor_id;sensor_type;location;lat;lon;timestamp;pressure;altitude;pressure_sealevel;temperature;humidity
19783;BME280;10051;40.294;-3.754;2023-06-22T00:02:21;94346.47;;;20.42;87.48
19783;BME280;10051;40.294;-3.754;2023-06-22T00:04:46;94287.38;;;20.03;86.58
19783;BME280;10051;40.294;-3.754;2023-06-22T00:07:12;94353.81;;;20.45;87.91
19783;BME280;10051;40.294;-3.754;2023-06-22T00:09:37;94321.34;;;20.18;87.48
19783;BME280;10051;40.294;-3.754;2023-06-22T00:12:03;94299.78;;;20.11;87.20
19783;BME280;10051;40.294;-3.754;2023-06-22T00:14:29;94282.47;;;19.93;88.51
19783;BME280;10051;40.294;-3.754;2023-06-22T00:16:54;94336.16;;;20.16;89.46
19783;BME280;10051;40.294;-3.754;2023-06-22T00:19:23;94276.22;;;19.76;90.18
19783;BME280;10051;40.294;-3.754;2023-06-22T00:21:49;94258.53;;;19.46;91.02
19783;BME280;10051;40.294;-3.754;2023-06-22T00:24:19;94314.66;;;19.50;93.35
19783;BME280;10051;40.294;-3.754;2023-06-22T00:26:44;94270.41;;;19.12;93.83
19783;BME280;10051;40.294;-3.754;2023-06-22T00:29:10;94282.75;;;19.29;92.69
19783;BME280;10051;40.294;-3.754;2023-06-22T00:31:37;94282.31;;;19.39;92.94
19783;BME280;10051;40.294;-3.754;2023-06-22T00:34:03;94259.22;;;19.31;92.66
19783;BME280;10051;40.294;-3.754;2023-06-22T00:36:28;94286.75;;;19.35;92.20
19783;BME280;10051;40.294;-3.754;2023-06-22T00:38:54;94274.97;;;19.24;93.69
19783;BME280;10051;40.294;-3.754;2023-06-22T00:41:20;94216.09;;;18.70;93.47
19783;BME280;10051;40.294;-3.754;2023-06-22T00:43:46;94329.31;;;19.44;94.53
19783;BME280;10051;40.294;-3.754;2023-06-22T00:46:12;94336.91;;;19.54;93.55
19783;BME280;10051;40.294;-3.754;2023-06-22T00:48:38;94333.91;;;19.68;92.21
19783;BME280;10051;40.294;-3.754;2023-06-22T00:51:05;94331.13;;;19.65;92.09
19783;BME280;10051;40.294;-3.754;2023-06-22T00:53:31;94210.78;;;18.70;91.21
19783;BME280;10051;40.294;-3.754;2023-06-22T00:56:00;94270.59;;;19.07;91.39
19783;BME280;10051;40.294;-3.754;2023-06-22T00:58:26;94304.97;;;19.45;90.94
19783;BME280;10051;40.294;-3.754;2023-06-22T01:00:51;94324.91;;;19.60;90.27
19783;BME280;10051;40.294;-3.754;2023-06-22T01:03:17;94336.69;;;19.84;92.03
19783;BME280;10051;40.294;-3.754;2023-06-22T01:05:44;94291.78;;;19.61;92.01
19783;BME280;10051;40.294;-3.754;2023-06-22T01:11:04;94341.84;;;20.02;90.07
19783;BME280;10051;40.294;-3.754;2023-06-22T01:16:31;94278.66;;;19.69;89.99
19783;BME280;10051;40.294;-3.754;2023-06-22T01:19:05;94336.16;;;20.03;89.34
19783;BME280;10051;40.294;-3.754;2023-06-22T01:21:35;94336.16;;;19.79;88.02
19783;BME280;10051;40.294;-3.754;2023-06-22T01:24:15;94324.13;;;19.60;90.80
19783;BME280;10051;40.294;-3.754;2023-06-22T01:26:57;94334.53;;;19.53;91.66
19783;BME280;10051;40.294;-3.754;2023-06-22T01:29:26;94318.41;;;19.37;90.63
19783;BME280;10051;40.294;-3.754;2023-06-22T01:31:54;94332.19;;;19.39;90.69
19783;BME280;10051;40.294;-3.754;2023-06-22T01:34:21;94322.91;;;19.11;91.75
19783;BME280;10051;40.294;-3.754;2023-06-22T01:36:49;94302.78;;;19.01;92.72
19783;BME280;10051;40.294;-3.754;2023-06-22T01:39:16;94311.94;;;19.13;91.62
19783;BME280;10051;40.294;-3.754;2023-06-22T01:41:42;94334.28;;;19.33;92.42
19783;BME280;10051;40.294;-3.754;2023-06-22T01:44:09;94216.69;;;18.55;92.45
19783;BME280;10051;40.294;-3.754;2023-06-22T01:46:35;94296.13;;;19.08;91.59
19783;BME280;10051;40.294;-3.754;2023-06-22T01:49:05;94266.84;;;18.86;91.73
19783;BME280;10051;40.294;-3.754;2023-06-22T01:51:31;94308.09;;;19.01;93.37
19783;BME280;10051;40.294;-3.754;2023-06-22T01:53:57;94242.88;;;18.53;96.38
19783;BME280;10051;40.294;-3.754;2023-06-22T01:56:23;94302.06;;;18.92;96.59
19783;BME280;10051;40.294;-3.754;2023-06-22T02:01:36;94337.25;;;19.19;96.43
19783;BME280;10051;40.294;-3.754;2023-06-22T02:04:11;94299.13;;;18.85;97.80
19783;BME280;10051;40.294;-3.754;2023-06-22T02:06:39;94315.38;;;18.92;96.20
19783;BME280;10051;40.294;-3.754;2023-06-22T02:09:11;94343.00;;;18.87;97.16
19783;BME280;10051;40.294;-3.754;2023-06-22T02:11:40;94344.41;;;18.85;100.00
19783;BME280;10051;40.294;-3.754;2023-06-22T02:14:07;94223.34;;;18.06;99.85
19783;BME280;10051;40.294;-3.754;2023-06-22T02:16:33;94330.66;;;18.83;97.41
19783;BME280;10051;40.294;-3.754;2023-06-22T02:19:01;94280.16;;;18.53;97.35
19783;BME280;10051;40.294;-3.754;2023-06-22T02:21:29;94305.09;;;18.69;95.96
19783;BME280;10051;40.294;-3.754;2023-06-22T02:23:56;94296.50;;;18.64;96.47
19783;BME280;10051;40.294;-3.754;2023-06-22T02:26:22;94282.53;;;18.67;95.87
19783;BME280;10051;40.294;-3.754;2023-06-22T02:28:49;94246.63;;;18.52;95.79
19783;BME280;10051;40.294;-3.754;2023-06-22T02:31:14;94287.38;;;18.86;92.03
19783;BME280;10051;40.294;-3.754;2023-06-22T02:33:40;94374.34;;;19.24;92.33
19783;BME280;10051;40.294;-3.754;2023-06-22T02:36:05;94293.53;;;18.65;94.04
19783;BME280;10051;40.294;-3.754;2023-06-22T02:38:35;94313.53;;;18.71;94.32
19783;BME280;10051;40.294;-3.754;2023-06-22T02:41:02;94283.78;;;18.48;94.67
19783;BME280;10051;40.294;-3.754;2023-06-22T02:43:27;94273.59;;;18.29;95.79
19783;BME280;10051;40.294;-3.754;2023-06-22T02:45:53;94274.81;;;18.32;97.14
19783;BME280;10051;40.294;-3.754;2023-06-22T02:48:19;94331.56;;;18.66;95.54
19783;BME280;10051;40.294;-3.754;2023-06-22T02:50:45;94331.53;;;18.75;94.81
19783;BME280;10051;40.294;-3.754;2023-06-22T02:53:10;94359.03;;;18.79;94.80
19783;BME280;10051;40.294;-3.754;2023-06-22T02:55:36;94260.03;;;18.22;96.33
19783;BME280;10051;40.294;-3.754;2023-06-22T02:58:01;94326.78;;;18.59;95.83
19783;BME280;10051;40.294;-3.754;2023-06-22T03:00:30;94368.84;;;18.87;95.72
19783;BME280;10051;40.294;-3.754;2023-06-22T03:02:57;94318.97;;;18.54;94.52
19783;BME280;10051;40.294;-3.754;2023-06-22T03:05:23;94280.53;;;18.42;94.37
19783;BME280;10051;40.294;-3.754;2023-06-22T03:07:49;94301.31;;;18.70;93.18
19783;BME280;10051;40.294;-3.754;2023-06-22T03:10:15;94358.34;;;19.24;92.21
19783;BME280;10051;40.294;-3.754;2023-06-22T03:12:42;94320.53;;;18.97;93.22
19783;BME280;10051;40.294;-3.754;2023-06-22T03:15:10;94379.72;;;19.37;94.27
19783;BME280;10051;40.294;-3.754;2023-06-22T03:17:36;94356.97;;;19.06;94.58
19783;BME280;10051;40.294;-3.754;2023-06-22T03:20:03;94355.22;;;19.10;94.55
19783;BME280;10051;40.294;-3.754;2023-06-22T03:22:37;94385.47;;;19.26;91.90
19783;BME280;10051;40.294;-3.754;2023-06-22T03:25:03;94341.31;;;19.04;91.98
19783;BME280;10051;40.294;-3.754;2023-06-22T03:27:29;94357.34;;;18.95;93.21
19783;BME280;10051;40.294;-3.754;2023-06-22T03:29:57;94387.56;;;19.21;93.11
19783;BME280;10051;40.294;-3.754;2023-06-22T03:32:22;94342.75;;;19.01;94.40
19783;BME280;10051;40.294;-3.754;2023-06-22T03:34:48;94354.31;;;19.06;95.19
19783;BME280;10051;40.294;-3.754;2023-06-22T03:37:14;94376.91;;;19.21;94.94
19783;BME280;10051;40.294;-3.754;2023-06-22T03:39:41;94303.78;;;18.76;95.07
19783;BME280;10051;40.294;-3.754;2023-06-22T03:42:07;94303.06;;;18.66;95.38
19783;BME280;10051;40.294;-3.754;2023-06-22T03:44:34;94356.13;;;18.71;95.58
19783;BME280;10051;40.294;-3.754;2023-06-22T03:47:05;94380.34;;;18.79;96.54
19783;BME280;10051;40.294;-3.754;2023-06-22T03:49:33;94325.28;;;18.49;96.55
19783;BME280;10051;40.294;-3.754;2023-06-22T03:52:00;94309.78;;;18.51;97.34
19783;BME280;10051;40.294;-3.754;2023-06-22T03:54:26;94341.06;;;18.76;97.21
19783;BME280;10051;40.294;-3.754;2023-06-22T03:56:51;94399.44;;;19.23;97.17
19783;BME280;10051;40.294;-3.754;2023-06-22T03:59:17;94367.53;;;18.93;96.38
19783;BME280;10051;40.294;-3.754;2023-06-22T04:01:43;94401.09;;;19.15;96.86
19783;BME280;10051;40.294;-3.754;2023-06-22T04:04:08;94400.34;;;18.85;99.04
19783;BME280;10051;40.294;-3.754;2023-06-22T04:06:34;94410.09;;;18.81;99.85
19783;BME280;10051;40.294;-3.754;2023-06-22T04:08:59;94392.81;;;18.45;100.00
19783;BME280;10051;40.294;-3.754;2023-06-22T04:11:26;94410.41;;;18.58;100.00
19783;BME280;10051;40.294;-3.754;2023-06-22T04:13:52;94387.00;;;18.42;100.00
19783;BME280;10051;40.294;-3.754;2023-06-22T04:16:17;94420.97;;;18.76;100.00
19783;BME280;10051;40.294;-3.754;2023-06-22T04:18:43;94351.03;;;18.36;100.00
19783;BME280;10051;40.294;-3.754;2023-06-22T04:21:10;94427.84;;;18.77;100.00
19783;BME280;10051;40.294;-3.754;2023-06-22T04:23:35;94412.56;;;18.65;95.82
19783;BME280;10051;40.294;-3.754;2023-06-22T04:26:01;94393.59;;;18.45;96.24
19783;BME280;10051;40.294;-3.754;2023-06-22T04:28:26;94414.91;;;18.36;98.07
19783;BME280;10051;40.294;-3.754;2023-06-22T04:30:52;94336.28;;;17.88;99.04
19783;BME280;10051;40.294;-3.754;2023-06-22T04:33:17;94410.38;;;18.07;100.00
19783;BME280;10051;40.294;-3.754;2023-06-22T04:35:46;94412.19;;;17.76;100.00
19783;BME280;10051;40.294;-3.754;2023-06-22T04:38:12;94448.25;;;17.95;100.00
19783;BME280;10051;40.294;-3.754;2023-06-22T04:40:41;94380.97;;;17.47;100.00
19783;BME280;10051;40.294;-3.754;2023-06-22T04:43:07;94446.56;;;17.99;100.00
19783;BME280;10051;40.294;-3.754;2023-06-22T04:45:35;94410.41;;;17.89;100.00
19783;BME280;10051;40.294;-3.754;2023-06-22T04:48:04;94451.00;;;18.25;100.00
19783;BME280;10051;40.294;-3.754;2023-06-22T04:50:29;94427.44;;;17.97;100.00
19783;BME280;10051;40.294;-3.754;2023-06-22T04:52:55;94400.66;;;17.63;100.00
19783;BME280;10051;40.294;-3.754;2023-06-22T04:55:21;94419.25;;;17.54;100.00
19783;BME280;10051;40.294;-3.754;2023-06-22T04:57:47;94443.47;;;17.79;100.00
19783;BME280;10051;40.294;-3.754;2023-06-22T05:00:19;94380.19;;;17.46;99.06
19783;BME280;10051;40.294;-3.754;2023-06-22T05:02:46;94464.97;;;18.13;97.89
19783;BME280;10051;40.294;-3.754;2023-06-22T05:05:12;94456.41;;;17.90;98.93
19783;BME280;10051;40.294;-3.754;2023-06-22T05:07:51;94470.16;;;18.09;98.14
19783;BME280;10051;40.294;-3.754;2023-06-22T05:10:19;94459.25;;;17.84;97.82
19783;BME280;10051;40.294;-3.754;2023-06-22T05:12:46;94473.16;;;17.99;98.67
19783;BME280;10051;40.294;-3.754;2023-06-22T05:15:11;94417.06;;;17.57;99.93
19783;BME280;10051;40.294;-3.754;2023-06-22T05:17:37;94463.13;;;17.96;99.06
19783;BME280;10051;40.294;-3.754;2023-06-22T05:20:09;94475.34;;;18.06;99.83
19783;BME280;10051;40.294;-3.754;2023-06-22T05:22:35;94488.47;;;18.02;100.00
19783;BME280;10051;40.294;-3.754;2023-06-22T05:25:01;94442.50;;;17.84;100.00
19783;BME280;10051;40.294;-3.754;2023-06-22T05:27:26;94450.28;;;17.98;99.66
19783;BME280;10051;40.294;-3.754;2023-06-22T05:29:52;94468.91;;;17.98;100.00
19783;BME280;10051;40.294;-3.754;2023-06-22T05:32:17;94457.69;;;17.83;100.00
19783;BME280;10051;40.294;-3.754;2023-06-22T05:34:44;94481.75;;;18.05;100.00
19783;BME280;10051;40.294;-3.754;2023-06-22T05:37:09;94469.53;;;17.95;99.21
19783;BME280;10051;40.294;-3.754;2023-06-22T05:39:35;94442.63;;;18.05;97.86
19783;BME280;10051;40.294;-3.754;2023-06-22T05:42:07;94439.78;;;18.40;95.50
19783;BME280;10051;40.294;-3.754;2023-06-22T05:44:33;94393.91;;;18.13;95.89
19783;BME280;10051;40.294;-3.754;2023-06-22T05:46:59;94455.75;;;18.49;95.72
19783;BME280;10051;40.294;-3.754;2023-06-22T05:49:24;94464.84;;;18.48;96.18
19783;BME280;10051;40.294;-3.754;2023-06-22T05:51:55;94467.75;;;18.55;97.09
19783;BME280;10051;40.294;-3.754;2023-06-22T05:54:20;94371.06;;;18.12;95.32
19783;BME280;10051;40.294;-3.754;2023-06-22T05:56:46;94467.59;;;18.82;95.60
19783;BME280;10051;40.294;-3.754;2023-06-22T05:59:11;94368.53;;;18.16;96.60
19783;BME280;10051;40.294;-3.754;2023-06-22T06:01:37;94500.88;;;19.06;95.14
19783;BME280;10051;40.294;-3.754;2023-06-22T06:04:03;94409.91;;;18.65;94.04
19783;BME280;10051;40.294;-3.754;2023-06-22T06:06:29;94389.78;;;18.76;91.04
19783;BME280;10051;40.294;-3.754;2023-06-22T06:08:55;94427.22;;;19.22;90.57
19783;BME280;10051;40.294;-3.754;2023-06-22T06:11:22;94411.75;;;19.15;89.39
19783;BME280;10051;40.294;-3.754;2023-06-22T06:13:47;94431.75;;;19.43;89.50
19783;BME280;10051;40.294;-3.754;2023-06-22T06:16:13;94521.16;;;19.95;88.90
19783;BME280;10051;40.294;-3.754;2023-06-22T06:18:38;94519.63;;;19.94;89.60
19783;BME280;10051;40.294;-3.754;2023-06-22T06:21:04;94471.81;;;19.68;89.36
19783;BME280;10051;40.294;-3.754;2023-06-22T06:23:29;94478.09;;;19.84;89.33
19783;BME280;10051;40.294;-3.754;2023-06-22T06:25:55;94485.41;;;20.09;89.04
19783;BME280;10051;40.294;-3.754;2023-06-22T06:28:21;94491.31;;;20.14;88.27
19783;BME280;10051;40.294;-3.754;2023-06-22T06:30:47;94405.16;;;19.34;89.39
19783;BME280;10051;40.294;-3.754;2023-06-22T06:33:13;94526.09;;;20.05;89.67
19783;BME280;10051;40.294;-3.754;2023-06-22T06:35:38;94549.41;;;20.30;89.98
19783;BME280;10051;40.294;-3.754;2023-06-22T06:38:04;94497.22;;;20.20;89.50
19783;BME280;10051;40.294;-3.754;2023-06-22T06:40:29;94403.41;;;19.51;87.27
19783;BME280;10051;40.294;-3.754;2023-06-22T06:42:55;94422.69;;;19.69;87.24
19783;BME280;10051;40.294;-3.754;2023-06-22T06:45:22;94547.88;;;20.54;88.34
19783;BME280;10051;40.294;-3.754;2023-06-22T06:47:48;94542.00;;;20.60;87.74
19783;BME280;10051;40.294;-3.754;2023-06-22T06:50:15;94441.81;;;19.71;87.53
19783;BME280;10051;40.294;-3.754;2023-06-22T06:52:41;94522.16;;;20.24;88.95
19783;BME280;10051;40.294;-3.754;2023-06-22T06:55:07;94505.44;;;20.15;88.17
19783;BME280;10051;40.294;-3.754;2023-06-22T06:57:39;94561.34;;;20.57;84.77
19783;BME280;10051;40.294;-3.754;2023-06-22T07:00:09;94566.50;;;20.75;84.35
19783;BME280;10051;40.294;-3.754;2023-06-22T07:02:38;94569.84;;;20.72;84.29
19783;BME280;10051;40.294;-3.754;2023-06-22T07:05:05;94565.03;;;20.65;86.50
19783;BME280;10051;40.294;-3.754;2023-06-22T07:07:31;94520.06;;;20.42;84.80
19783;BME280;10051;40.294;-3.754;2023-06-22T07:09:57;94538.09;;;20.70;83.70
19783;BME280;10051;40.294;-3.754;2023-06-22T07:12:22;94569.63;;;21.02;80.09
19783;BME280;10051;40.294;-3.754;2023-06-22T07:14:48;94538.00;;;20.79;83.27
19783;BME280;10051;40.294;-3.754;2023-06-22T07:17:14;94585.78;;;21.05;81.55
19783;BME280;10051;40.294;-3.754;2023-06-22T07:19:39;94517.38;;;20.67;82.67
19783;BME280;10051;40.294;-3.754;2023-06-22T07:22:05;94533.22;;;20.85;82.50
19783;BME280;10051;40.294;-3.754;2023-06-22T07:24:31;94590.31;;;21.30;80.06
19783;BME280;10051;40.294;-3.754;2023-06-22T07:26:57;94462.94;;;20.34;80.03
19783;BME280;10051;40.294;-3.754;2023-06-22T07:29:24;94584.53;;;21.28;79.51
19783;BME280;10051;40.294;-3.754;2023-06-22T07:31:50;94512.72;;;20.76;76.03
19783;BME280;10051;40.294;-3.754;2023-06-22T07:34:19;94513.38;;;20.61;77.34
19783;BME280;10051;40.294;-3.754;2023-06-22T07:36:47;94502.03;;;20.64;75.99
19783;BME280;10051;40.294;-3.754;2023-06-22T07:39:13;94561.03;;;21.21;75.56
19783;BME280;10051;40.294;-3.754;2023-06-22T07:41:41;94536.31;;;21.12;74.24
19783;BME280;10051;40.294;-3.754;2023-06-22T07:44:07;94494.56;;;20.94;73.83
19783;BME280;10051;40.294;-3.754;2023-06-22T07:46:33;94602.22;;;21.69;73.01
19783;BME280;10051;40.294;-3.754;2023-06-22T07:48:58;94513.13;;;21.16;73.34
19783;BME280;10051;40.294;-3.754;2023-06-22T07:51:25;94527.47;;;21.23;73.93
19783;BME280;10051;40.294;-3.754;2023-06-22T07:53:51;94571.00;;;21.49;74.18
19783;BME280;10051;40.294;-3.754;2023-06-22T07:56:16;94527.16;;;21.37;73.87
19783;BME280;10051;40.294;-3.754;2023-06-22T07:58:45;94527.97;;;21.54;72.40
19783;BME280;10051;40.294;-3.754;2023-06-22T08:01:11;94500.13;;;21.43;71.17
19783;BME280;10051;40.294;-3.754;2023-06-22T08:03:37;94600.00;;;22.00;71.97
19783;BME280;10051;40.294;-3.754;2023-06-22T08:06:03;94505.53;;;21.30;72.41
19783;BME280;10051;40.294;-3.754;2023-06-22T08:08:28;94560.50;;;21.68;72.08
19783;BME280;10051;40.294;-3.754;2023-06-22T08:10:54;94533.09;;;21.59;69.70
19783;BME280;10051;40.294;-3.754;2023-06-22T08:13:19;94619.84;;;21.99;70.41
19783;BME280;10051;40.294;-3.754;2023-06-22T08:15:45;94610.69;;;22.00;69.11
19783;BME280;10051;40.294;-3.754;2023-06-22T08:18:10;94540.47;;;21.50;70.71
19783;BME280;10051;40.294;-3.754;2023-06-22T08:20:36;94496.66;;;21.14;69.97
19783;BME280;10051;40.294;-3.754;2023-06-22T08:23:02;94620.59;;;22.12;68.84
19783;BME280;10051;40.294;-3.754;2023-06-22T08:25:32;94597.78;;;22.18;67.12
19783;BME280;10051;40.294;-3.754;2023-06-22T08:27:58;94539.31;;;21.76;67.64
19783;BME280;10051;40.294;-3.754;2023-06-22T08:30:23;94632.28;;;22.48;68.19
19783;BME280;10051;40.294;-3.754;2023-06-22T08:32:49;94557.97;;;22.17;66.91
19783;BME280;10051;40.294;-3.754;2023-06-22T08:35:14;94576.03;;;22.36;67.35
19783;BME280;10051;40.294;-3.754;2023-06-22T08:37:42;94640.69;;;22.79;66.38
19783;BME280;10051;40.294;-3.754;2023-06-22T08:40:09;94626.00;;;22.88;64.83
19783;BME280;10051;40.294;-3.754;2023-06-22T08:42:36;94572.88;;;22.46;66.52
19783;BME280;10051;40.294;-3.754;2023-06-22T08:45:02;94643.28;;;23.07;65.65
19783;BME280;10051;40.294;-3.754;2023-06-22T08:47:28;94640.63;;;23.23;65.39
19783;BME280;10051;40.294;-3.754;2023-06-22T08:49:53;94648.16;;;23.17;64.91
19783;BME280;10051;40.294;-3.754;2023-06-22T08:52:19;94622.72;;;23.11;64.41
19783;BME280;10051;40.294;-3.754;2023-06-22T08:54:46;94581.88;;;23.02;63.23
19783;BME280;10051;40.294;-3.754;2023-06-22T08:57:11;94637.44;;;23.53;63.34
19783;BME280;10051;40.294;-3.754;2023-06-22T08:59:37;94654.81;;;23.75;62.00
19783;BME280;10051;40.294;-3.754;2023-06-22T09:02:02;94649.66;;;23.86;61.74
19783;BME280;10051;40.294;-3.754;2023-06-22T09:04:28;94589.25;;;23.57;60.73
19783;BME280;10051;40.294;-3.754;2023-06-22T09:06:53;94594.19;;;23.74;60.94
19783;BME280;10051;40.294;-3.754;2023-06-22T09:09:20;94622.88;;;23.90;60.53
19783;BME280;10051;40.294;-3.754;2023-06-22T09:11:46;94600.91;;;23.65;61.59
19783;BME280;10051;40.294;-3.754;2023-06-22T09:14:12;94602.66;;;23.76;60.34
19783;BME280;10051;40.294;-3.754;2023-06-22T09:16:38;94652.03;;;24.27;58.63
19783;BME280;10051;40.294;-3.754;2023-06-22T09:19:03;94663.63;;;24.12;58.31
19783;BME280;10051;40.294;-3.754;2023-06-22T09:21:29;94662.97;;;23.99;58.53
19783;BME280;10051;40.294;-3.754;2023-06-22T09:23:55;94662.16;;;23.79;58.95
19783;BME280;10051;40.294;-3.754;2023-06-22T09:26:21;94626.41;;;23.74;59.40
19783;BME280;10051;40.294;-3.754;2023-06-22T09:28:49;94620.47;;;23.85;58.53
19783;BME280;10051;40.294;-3.754;2023-06-22T09:31:14;94663.91;;;24.26;58.68
19783;BME280;10051;40.294;-3.754;2023-06-22T09:33:41;94639.72;;;24.26;57.99
19783;BME280;10051;40.294;-3.754;2023-06-22T09:36:07;94634.34;;;24.26;59.18
19783;BME280;10051;40.294;-3.754;2023-06-22T09:38:36;94688.06;;;24.65;58.93
19783;BME280;10051;40.294;-3.754;2023-06-22T09:41:02;94633.94;;;24.44;59.64
19783;BME280;10051;40.294;-3.754;2023-06-22T09:43:28;94676.63;;;24.10;60.06
19783;BME280;10051;40.294;-3.754;2023-06-22T09:45:54;94653.56;;;24.09;60.74
19783;BME280;10051;40.294;-3.754;2023-06-22T09:48:19;94691.22;;;24.48;60.23
19783;BME280;10051;40.294;-3.754;2023-06-22T09:50:45;94668.91;;;24.67;59.12
19783;BME280;10051;40.294;-3.754;2023-06-22T09:53:10;94654.03;;;24.73;59.09
19783;BME280;10051;40.294;-3.754;2023-06-22T09:55:36;94677.19;;;25.01;58.21
19783;BME280;10051;40.294;-3.754;2023-06-22T09:58:01;94674.66;;;25.12;57.28
19783;BME280;10051;40.294;-3.754;2023-06-22T10:00:27;94644.78;;;24.94;58.08
19783;BME280;10051;40.294;-3.754;2023-06-22T10:02:53;94680.47;;;25.14;57.67
19783;BME280;10051;40.294;-3.754;2023-06-22T10:05:18;94681.19;;;25.11;57.81
19783;BME280;10051;40.294;-3.754;2023-06-22T10:07:44;94602.34;;;24.84;58.13
19783;BME280;10051;40.294;-3.754;2023-06-22T10:10:10;94669.44;;;25.46;57.23
19783;BME280;10051;40.294;-3.754;2023-06-22T10:12:37;94671.25;;;25.65;56.56
19783;BME280;10051;40.294;-3.754;2023-06-22T10:15:03;94616.44;;;25.50;55.65
19783;BME280;10051;40.294;-3.754;2023-06-22T10:17:29;94663.94;;;25.93;55.40
19783;BME280;10051;40.294;-3.754;2023-06-22T10:19:54;94672.22;;;26.07;52.87
19783;BME280;10051;40.294;-3.754;2023-06-22T10:22:20;94647.03;;;25.96;53.52
19783;BME280;10051;40.294;-3.754;2023-06-22T10:24:45;94650.25;;;26.05;53.78
19783;BME280;10051;40.294;-3.754;2023-06-22T10:27:11;94642.81;;;25.95;51.80
19783;BME280;10051;40.294;-3.754;2023-06-22T10:29:37;94644.03;;;26.01;53.71
19783;BME280;10051;40.294;-3.754;2023-06-22T10:32:03;94660.13;;;26.24;53.77
19783;BME280;10051;40.294;-3.754;2023-06-22T10:34:29;94644.38;;;26.30;53.46
19783;BME280;10051;40.294;-3.754;2023-06-22T10:36:54;94666.22;;;26.55;52.35
19783;BME280;10051;40.294;-3.754;2023-06-22T10:39:20;94645.81;;;26.54;52.32
19783;BME280;10051;40.294;-3.754;2023-06-22T10:41:48;94683.47;;;26.81;51.41
19783;BME280;10051;40.294;-3.754;2023-06-22T10:44:14;94647.06;;;26.64;51.87
19783;BME280;10051;40.294;-3.754;2023-06-22T10:46:39;94628.53;;;26.59;51.75
19783;BME280;10051;40.294;-3.754;2023-06-22T10:49:05;94616.66;;;26.67;50.92
19783;BME280;10051;40.294;-3.754;2023-06-22T10:51:30;94681.41;;;27.09;50.69
19783;BME280;10051;40.294;-3.754;2023-06-22T10:53:57;94632.66;;;26.87;51.42
19783;BME280;10051;40.294;-3.754;2023-06-22T10:56:23;94619.56;;;26.85;51.11
19783;BME280;10051;40.294;-3.754;2023-06-22T10:58:48;94642.91;;;27.12;49.91
19783;BME280;10051;40.294;-3.754;2023-06-22T11:01:14;94651.41;;;27.17;48.27
19783;BME280;10051;40.294;-3.754;2023-06-22T11:03:39;94648.72;;;27.21;48.75
19783;BME280;10051;40.294;-3.754;2023-06-22T11:06:05;94655.34;;;27.27;48.20
19783;BME280;10051;40.294;-3.754;2023-06-22T11:08:30;94688.00;;;27.60;48.13
19783;BME280;10051;40.294;-3.754;2023-06-22T11:10:56;94617.50;;;27.20;48.38
19783;BME280;10051;40.294;-3.754;2023-06-22T11:13:22;94698.88;;;27.71;47.76
19783;BME280;10051;40.294;-3.754;2023-06-22T11:15:48;94676.81;;;27.61;47.26
19783;BME280;10051;40.294;-3.754;2023-06-22T11:18:13;94660.97;;;27.56;47.52
19783;BME280;10051;40.294;-3.754;2023-06-22T11:20:39;94691.22;;;27.84;47.29
19783;BME280;10051;40.294;-3.754;2023-06-22T11:23:06;94693.16;;;27.83;46.13
19783;BME280;10051;40.294;-3.754;2023-06-22T11:25:32;94698.97;;;27.89;45.91
19783;BME280;10051;40.294;-3.754;2023-06-22T11:28:02;94648.50;;;27.37;44.07
19783;BME280;10051;40.294;-3.754;2023-06-22T11:30:28;94694.22;;;27.68;45.31
19783;BME280;10051;40.294;-3.754;2023-06-22T11:32:53;94668.69;;;27.58;46.03
19783;BME280;10051;40.294;-3.754;2023-06-22T11:35:19;94634.59;;;27.39;45.05
19783;BME280;10051;40.294;-3.754;2023-06-22T11:37:44;94668.63;;;27.51;45.89
19783;BME280;10051;40.294;-3.754;2023-06-22T11:40:10;94693.88;;;27.73;46.24
19783;BME280;10051;40.294;-3.754;2023-06-22T11:42:36;94681.50;;;27.72;47.12
19783;BME280;10051;40.294;-3.754;2023-06-22T11:45:04;94664.19;;;27.80;43.63
19783;BME280;10051;40.294;-3.754;2023-06-22T11:47:30;94689.75;;;27.97;41.71
19783;BME280;10051;40.294;-3.754;2023-06-22T11:49:56;94691.34;;;28.02;39.67
19783;BME280;10051;40.294;-3.754;2023-06-22T11:52:21;94693.69;;;28.11;40.30
19783;BME280;10051;40.294;-3.754;2023-06-22T11:54:47;94630.06;;;27.50;40.99
19783;BME280;10051;40.294;-3.754;2023-06-22T11:57:12;94683.06;;;27.73;41.82
19783;BME280;10051;40.294;-3.754;2023-06-22T11:59:38;94660.59;;;27.54;42.74
19783;BME280;10051;40.294;-3.754;2023-06-22T12:02:03;94679.50;;;27.61;42.60
19783;BME280;10051;40.294;-3.754;2023-06-22T12:04:30;94647.09;;;27.54;42.69
19783;BME280;10051;40.294;-3.754;2023-06-22T12:06:56;94667.25;;;27.75;42.21
19783;BME280;10051;40.294;-3.754;2023-06-22T12:09:21;94664.19;;;27.80;43.58
19783;BME280;10051;40.294;-3.754;2023-06-22T12:11:47;94693.66;;;28.00;43.25
19783;BME280;10051;40.294;-3.754;2023-06-22T12:14:12;94626.28;;;27.58;43.63
19783;BME280;10051;40.294;-3.754;2023-06-22T12:16:38;94691.34;;;28.09;42.33
19783;BME280;10051;40.294;-3.754;2023-06-22T12:19:03;94690.63;;;28.12;41.37
19783;BME280;10051;40.294;-3.754;2023-06-22T12:21:29;94664.28;;;27.98;41.93
19783;BME280;10051;40.294;-3.754;2023-06-22T12:23:54;94651.97;;;28.01;42.37
19783;BME280;10051;40.294;-3.754;2023-06-22T12:26:20;94683.81;;;28.40;42.29
19783;BME280;10051;40.294;-3.754;2023-06-22T12:28:47;94582.41;;;27.83;42.98
19783;BME280;10051;40.294;-3.754;2023-06-22T12:31:13;94671.09;;;28.55;42.10
19783;BME280;10051;40.294;-3.754;2023-06-22T12:33:39;94673.44;;;28.71;41.58
19783;BME280;10051;40.294;-3.754;2023-06-22T12:36:05;94612.69;;;28.29;40.54
19783;BME280;10051;40.294;-3.754;2023-06-22T12:38:30;94637.84;;;28.40;39.04
19783;BME280;10051;40.294;-3.754;2023-06-22T12:40:56;94683.47;;;28.60;40.44
19783;BME280;10051;40.294;-3.754;2023-06-22T12:43:21;94652.06;;;28.26;40.17
19783;BME280;10051;40.294;-3.754;2023-06-22T12:45:47;94674.47;;;28.27;40.41
19783;BME280;10051;40.294;-3.754;2023-06-22T12:48:12;94674.44;;;28.19;40.48
19783;BME280;10051;40.294;-3.754;2023-06-22T12:50:38;94637.19;;;27.80;39.75
19783;BME280;10051;40.294;-3.754;2023-06-22T12:53:04;94647.50;;;27.60;40.25
19783;BME280;10051;40.294;-3.754;2023-06-22T12:55:31;94675.31;;;27.68;40.09